Terminal Aerodrome Forecast
Issued by NWS

Home | Current Version | Previous Version | Text Only | Print | Product List | Glossary On
Versions: 1 2 3 4 5 6 7 8 9 10 11 12 13 14 15 16 17 18 19 20 21 22 23 24 25 26 27 28 29 30
000
FTUS41 KOKX 240548
TAFTEB
TAF
KTEB 240548Z 2406/2506 VRB02KT P6SM BKN250
     FM241500 08003KT P6SM BKN150
     FM241800 10006KT P6SM BKN100
     FM242200 11007KT P6SM SCT050 BKN080
     FM250300 06005KT P6SM -RA SCT015 OVC060=

USA.gov is the U.S. government's official web portal to all federal, state and local government web resources and services.